Main page
METAR-TAF:

METAR-TAF

Airports :

Larestan International Airport

Lar, Iran

latitude: 27-40-26N, longitude: 054-22-53E, elevation: 792 m

Current weather observation

The report was made 20 minutes ago, at 05:00 UTC
Calm wind
Temperature 12°C
Humidity 44%
Pressure 1023 hPa
Visibility 10 km or more
no clouds below 1500 m and no cumulonimbus

METAR: OISL 090500Z 00000KT CAVOK 12/M00 Q1023 A3022

Time: 08:50 (05:20 UTC)

Forecast

The report was made 6 hours and 10 minutes ago, at 23:10 UTC
Forecast valid from 09 at 00 UTC to 10 at 06 UTC
Wind 6 kt from the Northwest
Visibility: 8000 m
Temporary
from 09 at 09 UTC to 09 at 15 UTC
Wind 12 kt from the South/Southwest
Few clouds at a height of 3500 ft, Towering cumulus.

TAF: OISL 082310Z 0900/1006 32006KT 8000 NSC TEMPO 0909/0915 20012KT FEW035TCU

Weather observations and forecasts of more than 4000 airports (METAR and TAF reports).

The available stations are represented by yellow and red dots on the map.

Hover mouse over dot to see the name of the station.

Then click to see weather observations and forecasts.

To change the map : click on the green buttons with a black cross to zoom in, on the green button with a dash to zoom out, or on the green arrows for adjacent maps.


METAR-TAF: